createdAt,value
2018-07-03T00:00:14.119Z,15.40
2018-07-03T00:02:42.498Z,15.37
2018-07-03T00:05:10.902Z,15.33
2018-07-03T00:07:39.284Z,15.30
2018-07-03T00:10:09.724Z,15.28
2018-07-03T00:12:38.419Z,15.25
2018-07-03T00:15:07.326Z,15.23
2018-07-03T00:17:35.801Z,15.18
2018-07-03T00:20:04.894Z,15.14
2018-07-03T00:22:33.271Z,15.09
2018-07-03T00:25:01.639Z,15.04
2018-07-03T00:27:30.035Z,14.97
2018-07-03T00:29:58.405Z,14.91
2018-07-03T00:32:26.794Z,14.85
2018-07-03T00:34:55.168Z,14.79
2018-07-03T00:37:23.567Z,14.75
2018-07-03T00:39:51.930Z,14.71
2018-07-03T00:42:20.325Z,14.66
2018-07-03T00:44:48.694Z,14.63
2018-07-03T00:47:17.087Z,14.60
2018-07-03T00:49:45.452Z,14.56
2018-07-03T00:52:13.855Z,14.51
2018-07-03T00:54:42.234Z,14.46
2018-07-03T00:57:10.622Z,14.41
2018-07-03T00:59:50.290Z,14.38
2018-07-03T01:02:18.699Z,14.34
2018-07-03T01:04:47.063Z,14.33
2018-07-03T01:07:15.456Z,14.32
2018-07-03T01:09:43.825Z,14.31
2018-07-03T01:12:12.209Z,14.31
2018-07-03T01:14:40.583Z,14.29
2018-07-03T01:17:09.002Z,14.29
2018-07-03T01:19:37.382Z,14.27
2018-07-03T01:22:05.891Z,14.24
2018-07-03T01:24:34.259Z,14.23
2018-07-03T01:27:02.658Z,14.20
2018-07-03T01:29:31.074Z,14.18
2018-07-03T01:31:59.459Z,14.15
2018-07-03T01:34:27.853Z,14.14
2018-07-03T01:36:56.242Z,14.11
2018-07-03T01:39:24.799Z,14.07
2018-07-03T01:41:53.374Z,14.02
2018-07-03T01:44:21.742Z,13.98
2018-07-03T01:46:50.469Z,13.92
2018-07-03T01:49:18.835Z,13.88
2018-07-03T01:51:47.218Z,13.81
2018-07-03T01:54:15.582Z,13.76
2018-07-03T01:56:44.096Z,13.73
2018-07-03T01:59:12.483Z,13.70
2018-07-03T02:01:41.466Z,13.67
2018-07-03T02:04:10.026Z,13.65
2018-07-03T02:06:38.530Z,13.64
2018-07-03T02:09:10.054Z,13.63
2018-07-03T02:11:38.443Z,13.61
2018-07-03T02:14:07.202Z,13.59
2018-07-03T02:16:35.611Z,13.55
2018-07-03T02:19:04.404Z,13.53
2018-07-03T02:21:33.089Z,13.50
2018-07-03T02:24:01.471Z,13.49
2018-07-03T02:26:29.846Z,13.47
2018-07-03T02:28:58.229Z,13.46
2018-07-03T02:31:26.590Z,13.47
2018-07-03T02:33:55.110Z,13.44
2018-07-03T02:36:23.866Z,13.40
2018-07-03T02:38:52.262Z,13.37
2018-07-03T02:41:20.834Z,13.34
2018-07-03T02:43:49.237Z,13.31
2018-07-03T02:46:17.610Z,13.30
2018-07-03T02:48:46.010Z,13.26
2018-07-03T02:51:14.454Z,13.25
2018-07-03T02:53:42.876Z,13.24
2018-07-03T02:56:11.254Z,13.23
2018-07-03T02:58:39.654Z,13.23
2018-07-03T03:01:08.023Z,13.22
2018-07-03T03:03:36.583Z,13.25
2018-07-03T03:06:04.959Z,13.26
2018-07-03T03:08:33.356Z,13.27
2018-07-03T03:11:01.728Z,13.29
2018-07-03T03:13:30.138Z,13.30
2018-07-03T03:15:58.519Z,13.31
2018-07-03T03:18:26.886Z,13.33
2018-07-03T03:20:55.278Z,13.32
2018-07-03T03:23:23.638Z,13.35
2018-07-03T03:25:52.033Z,13.35
2018-07-03T03:28:20.404Z,13.35
2018-07-03T03:30:48.793Z,13.35
2018-07-03T03:33:17.174Z,13.36
2018-07-03T03:35:45.594Z,13.36
2018-07-03T03:38:13.978Z,13.38
2018-07-03T03:40:42.371Z,13.41
2018-07-03T03:43:10.738Z,13.45
2018-07-03T03:45:39.122Z,13.49
2018-07-03T03:48:07.594Z,13.52
2018-07-03T03:50:35.986Z,13.56
2018-07-03T03:53:04.359Z,13.63
2018-07-03T03:55:32.765Z,13.67
2018-07-03T03:58:01.138Z,13.83
2018-07-03T04:00:29.527Z,14.19
2018-07-03T04:02:57.906Z,14.57
2018-07-03T04:05:26.319Z,14.99
2018-07-03T04:07:55.055Z,15.44
2018-07-03T04:10:23.442Z,15.92
2018-07-03T04:12:51.807Z,16.38
2018-07-03T04:15:20.262Z,16.84
2018-07-03T04:17:48.630Z,17.28
2018-07-03T04:20:17.028Z,17.70
2018-07-03T04:22:45.401Z,18.09
2018-07-03T04:25:13.794Z,18.45
2018-07-03T04:27:42.163Z,18.76
2018-07-03T04:30:10.702Z,19.07
2018-07-03T04:32:39.183Z,19.32
2018-07-03T04:35:07.617Z,19.59
2018-07-03T04:37:35.991Z,19.85
2018-07-03T04:40:04.390Z,20.10
2018-07-03T04:42:33.006Z,20.32
2018-07-03T04:45:01.429Z,20.49
2018-07-03T04:47:29.951Z,20.65
2018-07-03T04:49:58.318Z,20.82
2018-07-03T04:52:26.706Z,20.99
2018-07-03T04:54:55.170Z,21.05
2018-07-03T04:57:23.550Z,21.00
2018-07-03T04:59:51.914Z,20.90
2018-07-03T05:02:20.305Z,20.82
2018-07-03T05:04:48.689Z,20.71
2018-07-03T05:07:17.087Z,20.59
2018-07-03T05:09:45.454Z,20.50
2018-07-03T05:12:13.846Z,20.48
2018-07-03T05:14:42.214Z,20.57
2018-07-03T05:17:10.623Z,20.67
2018-07-03T05:19:38.991Z,20.82
2018-07-03T05:22:07.388Z,20.93
2018-07-03T05:24:35.847Z,20.91
2018-07-03T05:27:04.194Z,20.87
2018-07-03T05:29:32.558Z,20.82
2018-07-03T05:32:00.953Z,20.76
2018-07-03T05:34:29.318Z,20.69
2018-07-03T05:36:57.806Z,20.73
2018-07-03T05:39:26.270Z,20.71
2018-07-03T05:41:54.675Z,20.71
2018-07-03T05:44:23.148Z,20.71
2018-07-03T05:46:51.538Z,20.74
2018-07-03T05:49:19.897Z,20.76
2018-07-03T05:51:48.336Z,20.80
2018-07-03T05:54:16.685Z,20.83
2018-07-03T05:56:45.058Z,20.86
2018-07-03T05:59:13.449Z,20.91
2018-07-03T06:01:41.823Z,20.97
2018-07-03T06:04:10.230Z,21.02
2018-07-03T06:06:38.597Z,21.08
2018-07-03T06:09:08.938Z,21.13
2018-07-03T06:11:37.332Z,21.21
2018-07-03T06:14:05.722Z,21.26
2018-07-03T06:16:34.351Z,21.32
2018-07-03T06:19:02.734Z,21.40
2018-07-03T06:21:31.305Z,21.50
2018-07-03T06:23:59.778Z,21.56
2018-07-03T06:26:28.165Z,21.65
2018-07-03T06:28:56.584Z,21.74
2018-07-03T06:31:25.251Z,21.82
2018-07-03T06:33:53.751Z,21.87
2018-07-03T06:36:22.117Z,21.94
2018-07-03T06:38:50.507Z,22.00
2018-07-03T06:41:18.883Z,22.08
2018-07-03T06:43:47.286Z,22.14
2018-07-03T06:46:15.655Z,22.20
2018-07-03T06:48:44.083Z,22.27
2018-07-03T06:51:12.450Z,22.36
2018-07-03T06:53:40.945Z,22.44
2018-07-03T06:56:09.313Z,22.53
2018-07-03T06:58:37.706Z,22.61
2018-07-03T07:01:06.070Z,22.69
2018-07-03T07:03:34.467Z,22.72
2018-07-03T07:06:02.857Z,22.79
2018-07-03T07:08:31.271Z,22.87
2018-07-03T07:10:59.643Z,22.96
2018-07-03T07:13:28.050Z,23.03
2018-07-03T07:15:56.449Z,23.11
2018-07-03T07:18:24.817Z,23.18
2018-07-03T07:20:53.357Z,23.23
2018-07-03T07:23:21.738Z,23.31
2018-07-03T07:25:50.218Z,23.37
2018-07-03T07:28:18.590Z,23.41
2018-07-03T07:30:46.979Z,23.44
2018-07-03T07:33:15.382Z,23.49
2018-07-03T07:35:43.793Z,23.55
2018-07-03T07:38:12.403Z,23.60
2018-07-03T07:40:40.799Z,23.68
2018-07-03T07:43:09.174Z,23.73
2018-07-03T07:45:37.595Z,23.77
2018-07-03T07:48:06.138Z,23.82
2018-07-03T07:50:34.527Z,23.88
2018-07-03T07:53:03.081Z,23.96
2018-07-03T07:55:31.475Z,24.02
2018-07-03T07:57:59.844Z,24.06
2018-07-03T08:00:28.453Z,24.12
2018-07-03T08:02:56.835Z,24.18
2018-07-03T08:05:25.255Z,24.24
2018-07-03T08:07:53.656Z,24.30
2018-07-03T08:10:22.074Z,24.36
2018-07-03T08:12:50.511Z,24.41
2018-07-03T08:15:18.898Z,24.46
2018-07-03T08:17:47.281Z,24.51
2018-07-03T08:20:15.670Z,24.55
2018-07-03T08:22:44.107Z,24.60
2018-07-03T08:25:12.516Z,24.65
2018-07-03T08:27:40.887Z,24.71
2018-07-03T08:30:09.480Z,24.78
2018-07-03T08:32:38.146Z,24.85
2018-07-03T08:35:06.787Z,24.90
2018-07-03T08:37:35.162Z,24.95
2018-07-03T08:40:03.555Z,25.02
2018-07-03T08:42:31.958Z,25.10
2018-07-03T08:45:00.318Z,25.16
2018-07-03T08:47:28.719Z,25.20
2018-07-03T08:49:57.129Z,25.22
2018-07-03T08:52:25.513Z,25.26
2018-07-03T08:54:53.894Z,25.28
2018-07-03T08:57:22.295Z,25.33
2018-07-03T08:59:50.667Z,25.38
2018-07-03T09:02:19.054Z,25.41
2018-07-03T09:04:47.443Z,25.47
2018-07-03T09:07:15.839Z,25.53
2018-07-03T09:09:44.206Z,25.56
2018-07-03T09:12:12.606Z,25.62
2018-07-03T09:14:41.026Z,25.65
2018-07-03T09:17:14.697Z,25.64
2018-07-03T09:19:43.107Z,25.56
2018-07-03T09:22:11.532Z,25.61
2018-07-03T09:24:40.059Z,25.55
2018-07-03T09:27:08.590Z,25.56
2018-07-03T09:29:36.959Z,25.63
2018-07-03T09:32:05.364Z,25.67
2018-07-03T09:34:33.786Z,25.68
2018-07-03T09:37:02.183Z,25.78
2018-07-03T09:39:30.577Z,25.85
2018-07-03T09:41:58.969Z,25.99
2018-07-03T09:44:27.338Z,26.05
2018-07-03T09:46:55.792Z,26.05
2018-07-03T09:49:24.158Z,26.07
2018-07-03T09:51:52.572Z,26.09
2018-07-03T09:54:21.034Z,26.13
2018-07-03T09:56:49.431Z,26.18
2018-07-03T09:59:17.798Z,26.23
2018-07-03T10:01:46.174Z,26.29
2018-07-03T10:04:14.595Z,26.28
2018-07-03T10:06:42.979Z,26.28
2018-07-03T10:09:12.271Z,26.33
2018-07-03T10:11:40.930Z,26.38
2018-07-03T10:14:09.742Z,26.41
2018-07-03T10:16:38.198Z,26.50
2018-07-03T10:19:07.022Z,26.59
2018-07-03T10:21:35.389Z,26.67
2018-07-03T10:24:03.977Z,26.72
2018-07-03T10:26:32.543Z,26.84
2018-07-03T10:29:01.463Z,26.90
2018-07-03T10:31:30.075Z,26.91
2018-07-03T10:33:58.509Z,26.82
2018-07-03T10:36:26.939Z,26.69
2018-07-03T10:38:55.343Z,26.63
2018-07-03T10:41:23.710Z,26.66
2018-07-03T10:43:52.210Z,26.70
2018-07-03T10:46:20.574Z,26.80
2018-07-03T10:48:48.973Z,26.89
2018-07-03T10:51:17.357Z,27.01
2018-07-03T10:53:45.755Z,27.09
2018-07-03T10:56:14.130Z,27.14
2018-07-03T10:58:42.530Z,27.09
2018-07-03T11:01:10.962Z,27.05
2018-07-03T11:03:39.345Z,27.03
2018-07-03T11:06:07.742Z,27.10
2018-07-03T11:08:36.203Z,27.15
2018-07-03T11:11:04.582Z,27.23
2018-07-03T11:13:32.975Z,27.32
2018-07-03T11:16:01.366Z,27.41
2018-07-03T11:18:29.753Z,27.50
2018-07-03T11:20:58.227Z,27.57
2018-07-03T11:23:26.599Z,27.65
2018-07-03T11:25:55.014Z,27.70
2018-07-03T11:28:23.402Z,27.67
2018-07-03T11:30:51.801Z,27.59
2018-07-03T11:33:20.170Z,27.58
2018-07-03T11:35:48.567Z,27.62
2018-07-03T11:38:16.938Z,27.66
2018-07-03T11:40:45.325Z,27.68
2018-07-03T11:43:13.970Z,27.66
2018-07-03T11:45:42.349Z,27.66
2018-07-03T11:48:10.801Z,27.57
2018-07-03T11:50:39.303Z,27.46
2018-07-03T11:53:07.717Z,27.48
2018-07-03T11:55:36.332Z,27.52
2018-07-03T11:58:04.710Z,27.54
2018-07-03T12:00:33.106Z,27.55
2018-07-03T12:03:01.475Z,27.57
2018-07-03T12:05:29.979Z,27.57
2018-07-03T12:07:58.337Z,27.57
2018-07-03T12:10:26.732Z,27.62
2018-07-03T12:12:55.102Z,27.66
2018-07-03T12:15:23.497Z,27.71
2018-07-03T12:17:51.863Z,27.76
2018-07-03T12:20:20.258Z,27.81
2018-07-03T12:22:48.710Z,27.83
2018-07-03T12:25:17.103Z,27.86
2018-07-03T12:27:45.469Z,27.90
2018-07-03T12:30:14.095Z,27.89
2018-07-03T12:32:42.466Z,27.95
2018-07-03T12:35:10.863Z,27.99
2018-07-03T12:37:39.229Z,27.99
2018-07-03T12:40:07.650Z,27.91
2018-07-03T12:42:36.049Z,27.90
2018-07-03T12:45:04.775Z,27.90
2018-07-03T12:47:33.171Z,27.97
2018-07-03T12:50:01.542Z,28.01
2018-07-03T12:52:29.934Z,28.06
2018-07-03T12:54:58.339Z,28.11
2018-07-03T12:57:26.738Z,28.08
2018-07-03T12:59:55.128Z,28.02
2018-07-03T13:02:23.568Z,27.96
2018-07-03T13:04:51.951Z,27.89
2018-07-03T13:07:20.342Z,27.79
2018-07-03T13:09:48.714Z,27.82
2018-07-03T13:12:17.130Z,27.83
2018-07-03T13:14:45.497Z,27.86
2018-07-03T13:17:13.902Z,27.88
2018-07-03T13:19:42.294Z,27.94
2018-07-03T13:22:10.679Z,28.03
2018-07-03T13:24:39.055Z,28.11
2018-07-03T13:27:07.468Z,28.16
2018-07-03T13:29:35.886Z,28.24
2018-07-03T13:32:04.285Z,28.32
2018-07-03T13:34:32.663Z,28.40
2018-07-03T13:37:01.059Z,28.45
2018-07-03T13:39:29.431Z,28.43
2018-07-03T13:41:57.817Z,28.49
2018-07-03T13:44:26.217Z,28.54
2018-07-03T13:46:54.607Z,28.60
2018-07-03T13:49:22.978Z,28.67
2018-07-03T13:51:51.366Z,28.74
2018-07-03T13:54:19.737Z,28.78
2018-07-03T13:56:48.137Z,28.84
2018-07-03T13:59:16.510Z,28.90
2018-07-03T14:01:45.099Z,28.95
2018-07-03T14:04:13.506Z,28.97
2018-07-03T14:06:41.911Z,28.97
2018-07-03T14:09:10.471Z,29.04
2018-07-03T14:11:38.922Z,29.08
2018-07-03T14:14:07.659Z,29.15
2018-07-03T14:16:36.063Z,29.16
2018-07-03T14:19:04.463Z,29.23
2018-07-03T14:21:32.848Z,29.31
2018-07-03T14:24:01.242Z,29.36
2018-07-03T14:26:29.610Z,29.39
2018-07-03T14:28:58.007Z,29.34
2018-07-03T14:31:26.387Z,29.26
2018-07-03T14:33:54.786Z,29.18
2018-07-03T14:36:23.199Z,29.11
2018-07-03T14:38:51.570Z,29.13
2018-07-03T14:41:19.999Z,29.13
2018-07-03T14:43:48.400Z,29.14
2018-07-03T14:46:16.775Z,29.20
2018-07-03T14:48:45.175Z,29.29
2018-07-03T14:51:13.542Z,29.39
2018-07-03T14:53:41.947Z,29.46
2018-07-03T14:56:10.330Z,29.49
2018-07-03T14:58:38.722Z,29.52
2018-07-03T15:01:07.107Z,29.54
2018-07-03T15:03:35.514Z,29.45
2018-07-03T15:06:03.906Z,29.41
2018-07-03T15:08:32.363Z,29.37
2018-07-03T15:11:00.737Z,29.34
2018-07-03T15:13:29.157Z,29.30
2018-07-03T15:15:57.529Z,29.25
2018-07-03T15:18:30.078Z,29.21
2018-07-03T15:20:58.448Z,29.18
2018-07-03T15:23:26.862Z,29.16
2018-07-03T15:25:55.244Z,29.13
2018-07-03T15:28:23.699Z,29.11
2018-07-03T15:30:52.074Z,29.06
2018-07-03T15:33:20.448Z,29.03
2018-07-03T15:35:48.852Z,29.01
2018-07-03T15:38:17.229Z,28.98
2018-07-03T15:40:45.623Z,28.94
2018-07-03T15:43:14.007Z,28.88
2018-07-03T15:45:42.401Z,28.83
2018-07-03T15:48:10.769Z,28.81
2018-07-03T15:50:39.162Z,28.80
2018-07-03T15:53:07.529Z,28.79
2018-07-03T15:55:35.925Z,28.76
2018-07-03T15:58:04.319Z,28.75
2018-07-03T16:00:32.741Z,28.75
2018-07-03T16:03:12.378Z,28.75
2018-07-03T16:05:57.649Z,28.74
2018-07-03T16:09:07.018Z,28.74
2018-07-03T16:11:35.417Z,28.75
2018-07-03T16:14:03.832Z,28.74
2018-07-03T16:16:32.382Z,28.74
2018-07-03T16:19:06.143Z,28.75
2018-07-03T16:21:34.533Z,28.70
2018-07-03T16:24:02.907Z,28.61
2018-07-03T16:26:31.298Z,28.54
2018-07-03T16:28:59.679Z,28.48
2018-07-03T16:31:28.085Z,28.73
2018-07-03T16:33:57.263Z,28.97
2018-07-03T16:36:25.862Z,29.24
2018-07-03T16:38:54.324Z,29.56
2018-07-03T16:41:22.745Z,29.85
2018-07-03T16:43:51.114Z,30.14
2018-07-03T16:46:19.511Z,30.44
2018-07-03T16:48:47.883Z,30.67
2018-07-03T16:51:16.399Z,30.84
2018-07-03T16:53:44.788Z,31.09
2018-07-03T16:56:13.170Z,31.33
2018-07-03T16:58:41.597Z,31.52
2018-07-03T17:01:10.526Z,31.66
2018-07-03T17:03:39.067Z,31.78
2018-07-03T17:06:07.726Z,31.82
2018-07-03T17:08:36.247Z,31.82
2018-07-03T17:11:05.109Z,31.84
2018-07-03T17:13:33.533Z,31.89
2018-07-03T17:16:01.942Z,31.91
2018-07-03T17:18:31.799Z,31.85
2018-07-03T17:21:00.206Z,31.92
2018-07-03T17:23:28.859Z,32.05
2018-07-03T17:25:57.422Z,32.22
2018-07-03T17:28:26.239Z,32.25
2018-07-03T17:30:54.618Z,32.26
2018-07-03T17:33:23.022Z,32.25
2018-07-03T17:35:51.423Z,32.24
2018-07-03T17:38:19.865Z,32.23
2018-07-03T17:40:59.856Z,32.21
2018-07-03T17:44:10.270Z,32.22
2018-07-03T17:46:38.714Z,32.19
2018-07-03T17:49:07.436Z,32.07
2018-07-03T17:51:36.086Z,31.96
2018-07-03T17:54:04.607Z,31.77
2018-07-03T17:56:32.990Z,31.52
2018-07-03T17:59:01.582Z,31.26
2018-07-03T18:01:29.998Z,30.87
2018-07-03T18:03:58.421Z,30.42
2018-07-03T18:06:26.798Z,29.96
2018-07-03T18:08:55.220Z,29.49
2018-07-03T18:11:23.595Z,29.05
2018-07-03T18:13:51.990Z,28.59
2018-07-03T18:16:20.617Z,28.19
2018-07-03T18:18:54.422Z,27.82
2018-07-03T18:21:22.858Z,27.49
2018-07-03T18:23:51.521Z,27.22
2018-07-03T18:26:20.031Z,26.97
2018-07-03T18:28:48.434Z,26.74
2018-07-03T18:31:17.077Z,26.48
2018-07-03T18:33:45.682Z,26.28
2018-07-03T18:36:14.083Z,26.16
2018-07-03T18:38:42.562Z,26.01
2018-07-03T18:41:10.960Z,25.86
2018-07-03T18:43:39.488Z,25.70
2018-07-03T18:46:07.909Z,25.55
2018-07-03T18:48:36.487Z,25.48
2018-07-03T18:51:04.909Z,25.38
2018-07-03T18:53:33.339Z,25.28
2018-07-03T18:56:01.936Z,25.18
2018-07-03T18:58:30.374Z,25.07
2018-07-03T19:00:58.830Z,24.94
2018-07-03T19:03:27.486Z,24.83
2018-07-03T19:05:55.966Z,24.74
2018-07-03T19:08:24.475Z,24.66
2018-07-03T19:10:53.128Z,24.55
2018-07-03T19:13:21.613Z,24.48
2018-07-03T19:15:50.017Z,24.41
2018-07-03T19:18:18.473Z,24.33
2018-07-03T19:20:47.105Z,24.26
2018-07-03T19:23:15.541Z,24.19
2018-07-03T19:25:44.115Z,24.10
2018-07-03T19:28:12.704Z,24.02
2018-07-03T19:30:41.130Z,23.96
2018-07-03T19:33:09.564Z,23.89
2018-07-03T19:35:38.066Z,23.83
2018-07-03T19:38:06.631Z,23.76
2018-07-03T19:40:35.113Z,23.68
2018-07-03T19:43:22.762Z,23.62
2018-07-03T19:45:52.078Z,23.51
2018-07-03T19:48:20.650Z,23.41
2018-07-03T19:50:50.696Z,23.31
2018-07-03T19:53:19.194Z,23.21
2018-07-03T19:55:48.697Z,23.13
2018-07-03T19:58:17.646Z,23.07
2018-07-03T20:00:46.439Z,22.98
2018-07-03T20:03:14.953Z,22.91
2018-07-03T20:05:43.502Z,22.83
2018-07-03T20:08:12.003Z,22.74
2018-07-03T20:10:41.467Z,22.65
2018-07-03T20:13:12.167Z,22.55
2018-07-03T20:15:40.553Z,22.44
2018-07-03T20:18:10.305Z,22.35
2018-07-03T20:20:38.710Z,22.25
2018-07-03T20:23:07.119Z,22.17
2018-07-03T20:25:36.258Z,22.10
2018-07-03T20:28:04.774Z,22.02
2018-07-03T20:30:33.212Z,21.97
2018-07-03T20:33:01.594Z,21.90
2018-07-03T20:35:29.978Z,21.83
2018-07-03T20:38:00.534Z,21.75
2018-07-03T20:40:33.941Z,21.68
2018-07-03T20:43:02.480Z,21.61
2018-07-03T20:45:30.858Z,21.54
2018-07-03T20:47:59.255Z,21.48
2018-07-03T20:50:27.618Z,21.41
2018-07-03T20:52:56.019Z,21.34
2018-07-03T20:55:26.042Z,21.27
2018-07-03T20:57:54.464Z,21.21
2018-07-03T21:00:22.834Z,21.15
2018-07-03T21:02:51.227Z,21.09
2018-07-03T21:05:19.617Z,21.04
2018-07-03T21:07:47.997Z,20.98
2018-07-03T21:10:16.371Z,20.92
2018-07-03T21:12:44.774Z,20.86
2018-07-03T21:15:13.149Z,20.81
2018-07-03T21:17:41.515Z,20.74
2018-07-03T21:20:09.910Z,20.67
2018-07-03T21:22:38.282Z,20.61
2018-07-03T21:25:06.670Z,20.54
2018-07-03T21:27:35.045Z,20.48
2018-07-03T21:30:03.442Z,20.41
2018-07-03T21:32:31.884Z,20.35
2018-07-03T21:35:00.273Z,20.29
2018-07-03T21:37:28.639Z,20.22
2018-07-03T21:39:57.032Z,20.17
2018-07-03T21:42:25.404Z,20.09
2018-07-03T21:44:53.797Z,20.01
2018-07-03T21:47:22.167Z,19.94
2018-07-03T21:49:50.562Z,19.88
2018-07-03T21:52:18.926Z,19.80
2018-07-03T21:54:47.319Z,19.70
2018-07-03T21:57:15.682Z,19.62
2018-07-03T21:59:44.081Z,19.55
2018-07-03T22:02:12.446Z,19.48
2018-07-03T22:04:41.083Z,19.38
2018-07-03T22:07:09.491Z,19.32
2018-07-03T22:09:37.887Z,19.25
2018-07-03T22:12:06.283Z,19.16
2018-07-03T22:14:37.581Z,19.09
2018-07-03T22:17:06.477Z,19.02
2018-07-03T22:19:34.870Z,18.95
2018-07-03T22:22:03.243Z,18.87
2018-07-03T22:24:31.797Z,18.77
2018-07-03T22:27:00.186Z,18.68
2018-07-03T22:29:28.590Z,18.61
2018-07-03T22:31:56.963Z,18.52
2018-07-03T22:34:25.625Z,18.46
2018-07-03T22:36:54.181Z,18.40
2018-07-03T22:39:22.609Z,18.34
2018-07-03T22:41:50.985Z,18.28
2018-07-03T22:44:19.385Z,18.24
2018-07-03T22:46:47.791Z,18.18
2018-07-03T22:49:16.162Z,18.12
2018-07-03T22:51:44.550Z,18.08
2018-07-03T22:54:12.925Z,18.03
2018-07-03T22:56:41.452Z,18.00
2018-07-03T22:59:09.838Z,17.97
2018-07-03T23:01:38.232Z,17.95
2018-07-03T23:04:06.651Z,17.92
2018-07-03T23:06:35.038Z,17.89
2018-07-03T23:09:03.647Z,17.83
2018-07-03T23:11:32.029Z,17.79
2018-07-03T23:14:00.445Z,17.71
2018-07-03T23:16:28.840Z,17.65
2018-07-03T23:18:57.211Z,17.61
2018-07-03T23:21:25.603Z,17.58
2018-07-03T23:23:53.966Z,17.55
2018-07-03T23:26:22.361Z,17.54
2018-07-03T23:28:51.060Z,17.48
2018-07-03T23:31:19.626Z,17.44
2018-07-03T23:33:47.973Z,17.38
2018-07-03T23:36:16.366Z,17.32
2018-07-03T23:38:44.746Z,17.25
2018-07-03T23:41:13.143Z,17.20
2018-07-03T23:43:41.518Z,17.13
2018-07-03T23:46:08.850Z,17.08
2018-07-03T23:48:48.527Z,17.02
2018-07-03T23:51:28.289Z,16.95
2018-07-03T23:54:08.015Z,16.89
2018-07-03T23:56:47.801Z,16.83
2018-07-03T23:59:27.515Z,16.76
